Time;durP1;ratioP1;P1;durP2;ratioP2;P2;SDS_P1;SDS_P2;PMS_P1;PMS_P2;Temp;Humidity;BMP_temperature;BMP_pressure;BME280_temperature;BME280_humidity;BME280_pressure;Samples;Min_cycle;Max_cycle;Signal;HPM_P1;HPM_P2
2023/08/12 00:00:21;;;;;;;13.73;3.10;;;;;;;17.43;72.71;99979.19;5030577;28;20435;-45
2023/08/12 00:02:48;;;;;;;13.38;2.72;;;;;;;17.42;72.96;99989.59;5030723;28;20065;-46
2023/08/12 00:05:15;;;;;;;16.30;3.03;;;;;;;17.43;72.86;99985.59;5030913;28;20132;-43
2023/08/12 00:07:42;;;;;;;17.23;4.55;;;;;;;17.42;72.88;99972.78;5030738;28;20077;-44
2023/08/12 00:10:11;;;;;;;13.65;3.05;;;;;;;17.45;73.11;99971.97;5030660;28;20052;-49
2023/08/12 00:12:38;;;;;;;15.20;2.78;;;;;;;17.45;73.10;99966.38;5030482;28;20053;-43
2023/08/12 00:15:08;;;;;;;18.23;2.97;;;;;;;17.44;73.12;99970.41;5031042;28;20091;-43
2023/08/12 00:17:37;;;;;;;16.25;2.70;;;;;;;17.45;73.20;99963.59;5030721;28;20111;-44
2023/08/12 00:20:05;;;;;;;8.95;2.85;;;;;;;17.45;73.15;99955.19;5030716;28;20059;-43
2023/08/12 00:22:32;;;;;;;20.48;2.78;;;;;;;17.46;73.27;99961.59;5030745;28;20041;-47
2023/08/12 00:24:59;;;;;;;13.27;3.38;;;;;;;17.46;73.40;99953.19;5030532;28;20522;-44
2023/08/12 00:27:27;;;;;;;17.77;3.95;;;;;;;17.46;73.31;99951.19;5028755;28;20543;-45
2023/08/12 00:29:54;;;;;;;11.35;3.25;;;;;;;17.47;73.52;99952.00;5030663;28;20491;-43
2023/08/12 00:32:21;;;;;;;17.38;2.60;;;;;;;17.46;73.56;99956.78;5030436;28;20050;-44
2023/08/12 00:34:47;;;;;;;11.73;3.38;;;;;;;17.44;73.64;99945.22;5029452;28;20041;-44
2023/08/12 00:37:14;;;;;;;21.83;3.60;;;;;;;17.46;73.64;99951.19;5034618;28;20053;-43
2023/08/12 00:39:41;;;;;;;13.07;3.92;;;;;;;17.47;73.73;99947.16;5034075;28;20079;-44
2023/08/12 00:42:08;;;;;;;21.17;4.88;;;;;;;17.43;73.96;99951.22;5034187;28;20099;-44
2023/08/12 00:44:35;;;;;;;11.88;2.60;;;;;;;17.41;73.99;99937.66;5034123;28;20050;-46
2023/08/12 00:47:02;;;;;;;11.63;2.00;;;;;;;17.40;73.99;99952.03;5034111;28;20091;-44
2023/08/12 00:49:32;;;;;;;10.27;2.35;;;;;;;17.39;74.09;99942.06;5020999;28;20054;-43
2023/08/12 00:52:00;;;;;;;12.18;2.10;;;;;;;17.39;73.91;99928.88;5033923;28;20049;-45
2023/08/12 00:54:28;;;;;;;8.75;2.53;;;;;;;17.39;74.20;99940.06;5032794;28;20049;-45
2023/08/12 00:56:55;;;;;;;8.52;1.98;;;;;;;17.37;74.23;99936.84;5032999;28;20056;-44
2023/08/12 00:59:23;;;;;;;17.60;4.88;;;;;;;17.36;74.23;99929.69;5033810;28;20053;-44
2023/08/12 01:01:50;;;;;;;16.50;4.28;;;;;;;17.36;74.46;99926.88;5033717;28;20049;-44
2023/08/12 01:04:16;;;;;;;14.07;2.65;;;;;;;17.34;74.40;99931.31;5033496;28;20041;-44
2023/08/12 01:06:48;;;;;;;12.93;2.97;;;;;;;17.34;74.36;99917.31;5033887;28;20049;-43
2023/08/12 01:09:15;;;;;;;9.73;4.07;;;;;;;17.34;74.65;99920.88;5033958;28;20049;-44
2023/08/12 01:11:59;;;;;;;12.35;2.45;;;;;;;17.34;74.71;99920.88;5033498;28;20108;-45
2023/08/12 01:14:38;;;;;;;17.63;3.28;;;;;;;17.33;74.92;99913.72;5033784;28;20049;-44
2023/08/12 01:17:08;;;;;;;11.15;2.35;;;;;;;17.34;74.77;99904.09;5021646;28;20392;-43
2023/08/12 01:19:38;;;;;;;14.82;3.83;;;;;;;17.35;74.83;99907.69;5033200;28;20048;-47
2023/08/12 01:22:10;;;;;;;18.88;4.28;;;;;;;17.34;74.93;99892.91;5033971;28;20455;-44
2023/08/12 01:24:39;;;;;;;11.32;3.28;;;;;;;17.32;75.12;99888.94;5032951;28;20053;-44
2023/08/12 01:27:07;;;;;;;9.70;2.72;;;;;;;17.32;75.20;99888.94;5032445;28;20041;-44
2023/08/12 01:29:41;;;;;;;10.38;2.70;;;;;;;17.32;75.30;99884.13;5033039;28;20581;-43
2023/08/12 01:32:20;;;;;;;10.40;2.55;;;;;;;17.32;75.40;99875.75;5033334;28;20061;-44
2023/08/12 01:34:53;;;;;;;13.40;2.92;;;;;;;17.33;75.59;99884.94;5033372;28;20064;-45
2023/08/12 01:37:26;;;;;;;15.27;3.58;;;;;;;17.32;75.72;99875.75;5031855;28;20079;-44
2023/08/12 01:39:56;;;;;;;15.43;2.55;;;;;;;17.34;75.74;99869.75;5033093;28;20052;-44
2023/08/12 01:42:24;;;;;;;13.27;2.40;;;;;;;17.34;75.80;99872.56;5029452;28;20061;-44
2023/08/12 01:44:52;;;;;;;10.68;2.60;;;;;;;17.33;76.04;99860.56;5031080;28;20041;-44
2023/08/12 01:47:18;;;;;;;11.82;2.72;;;;;;;17.34;76.03;99858.56;5032077;28;20045;-45
2023/08/12 01:49:45;;;;;;;20.13;2.38;;;;;;;17.33;76.22;99852.16;5023199;28;20120;-44
2023/08/12 01:52:12;;;;;;;14.93;2.50;;;;;;;17.33;76.38;99860.56;5032498;28;20037;-44
2023/08/12 01:54:39;;;;;;;13.52;2.55;;;;;;;17.32;76.43;99858.16;5032788;28;20048;-48
2023/08/12 01:57:07;;;;;;;14.40;2.95;;;;;;;17.31;76.62;99854.59;5031874;28;20069;-43
2023/08/12 01:59:35;;;;;;;10.05;1.95;;;;;;;17.30;76.80;99858.56;5033169;28;20546;-44
2023/08/12 02:02:03;;;;;;;15.30;3.58;;;;;;;17.28;76.73;99844.22;5032591;28;20042;-43
2023/08/12 02:04:30;;;;;;;9.82;2.30;;;;;;;17.27;76.78;99842.63;5032756;28;20053;-43
2023/08/12 02:06:57;;;;;;;7.38;1.83;;;;;;;17.28;76.92;99849.00;5032637;28;20041;-44
2023/08/12 02:09:24;;;;;;;4.45;1.58;;;;;;;17.27;76.81;99839.81;5032765;28;20056;-43
2023/08/12 02:11:50;;;;;;;8.18;2.40;;;;;;;17.28;77.07;99838.63;5032449;28;20048;-43
2023/08/12 02:14:18;;;;;;;8.00;2.40;;;;;;;17.27;76.76;99828.63;5031169;28;20053;-44
2023/08/12 02:16:45;;;;;;;11.20;1.70;;;;;;;17.28;77.04;99816.25;5032518;28;20048;-43
2023/08/12 02:19:12;;;;;;;11.27;1.90;;;;;;;17.29;77.15;99817.81;5032694;28;20052;-43
2023/08/12 02:21:39;;;;;;;6.20;1.90;;;;;;;17.28;77.16;99816.25;5032450;28;20044;-44
2023/08/12 02:24:06;;;;;;;5.00;1.35;;;;;;;17.27;77.26;99817.44;5032331;28;20049;-43
2023/08/12 02:26:33;;;;;;;5.50;1.42;;;;;;;17.25;77.53;99814.25;5030622;28;20052;-44
2023/08/12 02:29:00;;;;;;;11.85;1.38;;;;;;;17.26;77.54;99829.06;5031671;28;20400;-43
2023/08/12 02:31:27;;;;;;;3.85;1.10;;;;;;;17.25;77.82;99825.44;5031955;28;20435;-44
2023/08/12 02:33:54;;;;;;;4.18;0.93;;;;;;;17.25;77.88;99813.47;5030964;28;20570;-44
2023/08/12 02:36:22;;;;;;;5.70;1.60;;;;;;;17.24;77.98;99814.66;5032026;28;20081;-43
2023/08/12 02:38:48;;;;;;;5.60;1.10;;;;;;;17.23;78.15;99808.28;5032366;28;20064;-44
2023/08/12 02:41:15;;;;;;;3.65;1.00;;;;;;;17.21;78.29;99810.69;5031764;28;20094;-43
2023/08/12 02:43:43;;;;;;;6.75;1.20;;;;;;;17.21;78.47;99807.13;5031875;28;20057;-44
2023/08/12 02:46:11;;;;;;;5.63;0.90;;;;;;;17.19;78.55;99804.72;5026610;28;20507;-43
2023/08/12 02:48:38;;;;;;;6.18;1.33;;;;;;;17.19;78.89;99807.50;5030865;28;20134;-44
2023/08/12 02:51:04;;;;;;;8.95;2.63;;;;;;;17.21;78.95;99805.09;5031745;28;20470;-43
2023/08/12 02:53:31;;;;;;;6.85;1.10;;;;;;;17.20;79.00;99803.50;5031759;28;20042;-44
2023/08/12 02:55:58;;;;;;;5.38;1.17;;;;;;;17.19;79.27;99801.91;5031741;28;20041;-43
2023/08/12 02:58:25;;;;;;;6.32;1.20;;;;;;;17.19;79.41;99782.34;5029875;28;20069;-44
2023/08/12 03:00:54;;;;;;;2.10;0.77;;;;;;;17.19;79.32;99785.13;5029184;28;20038;-44
2023/08/12 03:03:22;;;;;;;7.10;1.45;;;;;;;17.20;79.58;99791.53;5031435;28;20060;-48
2023/08/12 03:05:49;;;;;;;5.03;0.88;;;;;;;17.19;79.78;99785.13;5031722;28;20053;-46
2023/08/12 03:08:16;;;;;;;8.95;1.60;;;;;;;17.19;79.79;99768.34;5031737;28;20582;-48
2023/08/12 03:10:45;;;;;;;2.85;1.35;;;;;;;17.18;80.01;99765.97;5031363;28;20053;-45
2023/08/12 03:13:12;;;;;;;6.88;1.25;;;;;;;17.17;80.22;99765.19;5031281;28;20107;-46
2023/08/12 03:15:40;;;;;;;5.13;1.20;;;;;;;17.16;80.43;99771.97;5031532;28;20046;-44
2023/08/12 03:18:07;;;;;;;6.97;1.40;;;;;;;17.16;80.46;99774.75;5031199;28;20500;-43
2023/08/12 03:20:33;;;;;;;7.28;1.27;;;;;;;17.16;80.50;99769.16;5031306;28;20059;-44
2023/08/12 03:23:00;;;;;;;6.43;1.38;;;;;;;17.15;80.89;99772.41;5031155;28;20121;-44
2023/08/12 03:25:27;;;;;;;9.20;1.70;;;;;;;17.14;81.06;99754.81;5031051;28;20525;-43
2023/08/12 03:27:54;;;;;;;3.92;1.10;;;;;;;17.12;81.23;99754.44;5030008;28;20049;-44
2023/08/12 03:30:21;;;;;;;5.22;1.67;;;;;;;17.10;81.17;99764.44;5031242;28;20068;-45
2023/08/12 03:32:48;;;;;;;9.40;1.75;;;;;;;17.07;81.96;99760.47;5031227;28;20045;-44
2023/08/12 03:35:15;;;;;;;9.52;1.52;;;;;;;17.04;81.90;99758.50;5029911;28;20041;-43
2023/08/12 03:37:45;;;;;;;7.32;1.23;;;;;;;17.00;82.09;99743.75;5031435;28;20052;-43
2023/08/12 03:40:12;;;;;;;5.60;2.30;;;;;;;16.97;82.42;99744.59;5031118;28;20053;-43
2023/08/12 03:42:39;;;;;;;3.05;1.00;;;;;;;16.94;82.50;99748.97;5029895;28;20049;-45
2023/08/12 03:45:06;;;;;;;8.65;2.05;;;;;;;16.93;82.77;99743.81;5031088;28;20046;-44
2023/08/12 03:47:33;;;;;;;5.28;1.42;;;;;;;16.92;82.99;99747.81;5031197;28;20045;-44
2023/08/12 03:50:00;;;;;;;5.03;1.23;;;;;;;16.91;83.19;99735.06;5027838;28;20052;-46
2023/08/12 03:52:27;;;;;;;7.25;2.05;;;;;;;16.91;83.28;99746.22;5029255;28;20100;-44
2023/08/12 03:54:54;;;;;;;7.38;1.95;;;;;;;16.91;83.40;99737.84;5031286;28;20049;-43
2023/08/12 03:57:20;;;;;;;2.45;1.02;;;;;;;16.91;83.51;99741.44;5029946;28;20064;-43
2023/08/12 03:59:47;;;;;;;6.57;1.45;;;;;;;16.90;83.99;99744.63;5030942;28;20389;-44
2023/08/12 04:02:14;;;;;;;9.23;0.90;;;;;;;16.89;83.76;99738.25;5029326;28;20060;-43
2023/08/12 04:04:43;;;;;;;7.45;2.47;;;;;;;16.90;84.05;99739.03;5030996;28;20055;-44
2023/08/12 04:07:10;;;;;;;6.43;1.15;;;;;;;16.88;83.90;99741.47;5029814;28;20045;-45
2023/08/12 04:09:37;;;;;;;5.70;1.02;;;;;;;16.87;84.10;99735.06;5030398;28;20049;-44
2023/08/12 04:12:04;;;;;;;7.82;1.40;;;;;;;16.89;84.21;99731.88;5034356;28;20041;-44
2023/08/12 04:14:31;;;;;;;8.65;2.55;;;;;;;16.88;84.33;99731.06;5034450;28;20049;-44
2023/08/12 04:16:58;;;;;;;5.43;1.92;;;;;;;16.88;84.37;99733.06;5034937;28;20041;-43
2023/08/12 04:19:25;;;;;;;4.50;1.10;;;;;;;16.88;84.39;99721.88;5034451;28;20049;-43
2023/08/12 04:21:52;;;;;;;4.20;1.15;;;;;;;16.89;84.71;99723.50;5034781;28;20121;-44
2023/08/12 04:24:19;;;;;;;3.75;0.98;;;;;;;16.88;84.54;99727.47;5034499;28;20045;-44
2023/08/12 04:26:45;;;;;;;7.50;1.10;;;;;;;16.88;84.56;99716.28;5033120;28;20058;-45
2023/08/12 04:29:12;;;;;;;7.82;1.30;;;;;;;16.88;84.71;99719.09;5034454;28;20046;-43
2023/08/12 04:31:40;;;;;;;6.15;1.20;;;;;;;16.87;84.93;99714.69;5034333;28;20038;-45
2023/08/12 04:34:07;;;;;;;9.85;1.85;;;;;;;16.85;85.00;99719.91;5034329;28;20071;-46
2023/08/12 04:36:34;;;;;;;7.35;1.23;;;;;;;16.84;85.07;99709.94;5034440;28;20091;-44
2023/08/12 04:39:01;;;;;;;9.25;1.00;;;;;;;16.82;85.12;99726.31;5033106;28;20072;-43
2023/08/12 04:41:29;;;;;;;6.32;1.90;;;;;;;16.83;85.15;99727.94;5034374;28;20042;-44
2023/08/12 04:43:56;;;;;;;4.63;1.30;;;;;;;16.83;85.28;99708.34;5032264;28;20053;-43
2023/08/12 04:46:23;;;;;;;5.22;1.00;;;;;;;16.84;85.16;99718.31;5034179;28;20053;-43
2023/08/12 04:48:49;;;;;;;5.90;1.58;;;;;;;16.83;85.11;99711.94;5027354;28;20042;-45
2023/08/12 04:51:16;;;;;;;4.10;0.90;;;;;;;16.85;85.33;99708.72;5029291;28;20041;-43
2023/08/12 04:53:43;;;;;;;6.30;1.10;;;;;;;16.85;85.39;99706.72;5033803;28;20049;-43
2023/08/12 04:56:10;;;;;;;2.72;0.98;;;;;;;16.87;85.36;99706.31;5031011;28;20049;-43
2023/08/12 04:58:37;;;;;;;5.82;1.02;;;;;;;16.87;85.26;99707.09;5034080;28;20068;-43
2023/08/12 05:01:04;;;;;;;5.63;0.95;;;;;;;16.87;85.25;99712.69;5032440;28;20041;-43
2023/08/12 05:03:30;;;;;;;5.53;1.23;;;;;;;16.88;85.31;99705.13;5033631;28;20038;-43
2023/08/12 05:05:57;;;;;;;5.07;1.38;;;;;;;16.87;85.24;99711.91;5031824;28;20037;-46
2023/08/12 05:08:24;;;;;;;6.10;1.40;;;;;;;16.86;85.41;99699.94;5030476;28;20399;-43
2023/08/12 05:10:51;;;;;;;8.75;2.05;;;;;;;16.85;85.23;99703.94;5032806;28;20381;-43
2023/08/12 05:13:18;;;;;;;3.55;1.20;;;;;;;16.86;85.14;99704.75;5033782;28;20448;-44
2023/08/12 05:15:46;;;;;;;5.05;1.17;;;;;;;16.85;85.27;99703.13;5033712;28;20096;-44
2023/08/12 05:18:13;;;;;;;6.63;1.73;;;;;;;16.84;85.15;99707.94;5032319;28;20045;-45
2023/08/12 05:20:41;;;;;;;8.23;1.70;;;;;;;16.84;85.17;99710.72;5033428;28;20053;-44
2023/08/12 05:23:12;;;;;;;10.55;1.55;;;;;;;16.85;85.25;99722.72;5033454;28;20054;-43
2023/08/12 05:25:40;;;;;;;3.08;0.95;;;;;;;16.84;85.06;99721.91;5031991;28;20467;-44
2023/08/12 05:28:07;;;;;;;5.15;0.98;;;;;;;16.85;85.00;99719.91;5032213;28;20042;-44
2023/08/12 05:30:35;;;;;;;7.63;1.15;;;;;;;16.86;84.89;99711.13;5033384;28;20056;-43
2023/08/12 05:33:02;;;;;;;5.18;1.17;;;;;;;16.86;85.04;99715.94;5031908;28;20030;-44
2023/08/12 05:35:36;;;;;;;4.93;1.38;;;;;;;16.87;84.91;99714.69;5033037;28;20061;-45
2023/08/12 05:38:03;;;;;;;5.30;1.05;;;;;;;16.86;84.93;99721.50;5030762;28;20136;-43
2023/08/12 05:40:30;;;;;;;10.52;3.15;;;;;;;16.87;85.20;99717.50;5033056;28;20051;-43
2023/08/12 05:42:56;;;;;;;4.50;0.98;;;;;;;16.87;84.97;99720.28;5020174;28;20045;-43
2023/08/12 05:45:23;;;;;;;7.50;1.55;;;;;;;16.89;84.95;99715.09;5032743;28;20448;-46
2023/08/12 05:47:50;;;;;;;5.63;0.93;;;;;;;16.87;85.13;99718.28;5033400;28;20045;-46
2023/08/12 05:50:17;;;;;;;5.78;1.40;;;;;;;16.88;85.03;99714.31;5032349;28;20477;-45
2023/08/12 05:52:44;;;;;;;6.53;0.93;;;;;;;16.89;85.02;99715.09;5033048;28;20056;-43
2023/08/12 05:55:11;;;;;;;4.20;1.00;;;;;;;16.90;85.12;99716.66;5032601;28;20048;-47
2023/08/12 05:57:37;;;;;;;6.50;1.02;;;;;;;16.90;85.22;99723.06;5032298;28;20041;-43
2023/08/12 06:00:05;;;;;;;6.30;1.27;;;;;;;16.90;85.25;99723.06;5032642;28;20042;-43
2023/08/12 06:02:32;;;;;;;4.82;0.90;;;;;;;16.91;85.32;99723.88;5031411;28;20045;-45
2023/08/12 06:04:59;;;;;;;4.85;1.00;;;;;;;16.92;85.22;99720.66;5032503;28;20291;-44
2023/08/12 06:07:25;;;;;;;3.88;0.80;;;;;;;16.93;85.32;99721.44;5032406;28;20495;-44
2023/08/12 06:09:52;;;;;;;5.45;1.40;;;;;;;16.94;85.18;99723.81;5032559;28;20430;-43
2023/08/12 06:12:19;;;;;;;4.90;0.80;;;;;;;16.97;85.06;99722.22;5032507;28;20059;-43
2023/08/12 06:14:46;;;;;;;7.95;1.48;;;;;;;17.00;85.29;99732.56;5032400;28;20046;-43
2023/08/12 06:17:13;;;;;;;4.63;1.08;;;;;;;17.07;84.95;99720.53;5032592;28;20045;-43
2023/08/12 06:19:40;;;;;;;5.47;1.08;;;;;;;17.12;84.99;99720.88;5032505;28;20594;-44
2023/08/12 06:22:06;;;;;;;2.38;1.15;;;;;;;17.18;84.70;99724.81;5032513;28;20045;-45
2023/08/12 06:24:33;;;;;;;4.28;0.52;;;;;;;17.25;84.66;99718.34;5031640;28;20056;-44
2023/08/12 06:27:07;;;;;;;7.10;0.95;;;;;;;17.26;84.77;99726.31;5030506;28;20140;-44
2023/08/12 06:29:34;;;;;;;8.23;1.20;;;;;;;17.26;84.49;99720.72;5032008;28;20416;-46
2023/08/12 06:32:01;;;;;;;4.72;1.05;;;;;;;17.27;84.38;99722.31;5032487;28;20053;-44
2023/08/12 06:34:28;;;;;;;6.03;1.10;;;;;;;17.28;84.31;99709.94;5030519;28;20052;-43
2023/08/12 06:36:54;;;;;;;3.72;1.20;;;;;;;17.29;84.30;99716.31;5031861;28;20052;-43
2023/08/12 06:39:21;;;;;;;5.40;2.13;;;;;;;17.30;84.34;99703.91;5032330;28;20080;-44
2023/08/12 06:41:48;;;;;;;2.83;1.20;;;;;;;17.29;84.13;99711.50;5031984;28;20041;-43
2023/08/12 06:44:15;;;;;;;7.78;1.48;;;;;;;17.29;84.07;99711.50;5032048;28;20045;-44
2023/08/12 06:46:42;;;;;;;6.00;1.88;;;;;;;17.34;84.29;99719.44;5031819;28;20499;-44
2023/08/12 06:49:08;;;;;;;4.40;0.90;;;;;;;17.38;83.94;99725.00;5031633;28;20041;-44
2023/08/12 06:51:35;;;;;;;2.65;0.77;;;;;;;17.43;84.06;99716.97;5027093;28;20449;-45
2023/08/12 06:54:02;;;;;;;4.55;0.90;;;;;;;17.51;83.88;99723.25;5031803;28;20034;-43
2023/08/12 06:56:29;;;;;;;6.03;0.90;;;;;;;17.57;83.82;99730.84;5030315;28;20496;-43
2023/08/12 06:58:56;;;;;;;6.32;1.10;;;;;;;17.63;83.76;99725.56;5028594;28;20091;-44
2023/08/12 07:01:22;;;;;;;4.72;1.00;;;;;;;17.68;83.53;99724.31;5031535;28;20107;-44
2023/08/12 07:03:49;;;;;;;5.38;1.35;;;;;;;17.68;83.72;99727.91;5031282;28;20124;-43
2023/08/12 07:06:16;;;;;;;4.57;1.02;;;;;;;17.67;83.67;99731.09;5032058;28;20041;-43
2023/08/12 07:08:43;;;;;;;3.75;0.95;;;;;;;17.66;83.66;99740.75;5031418;28;20075;-44
2023/08/12 07:11:10;;;;;;;2.97;0.80;;;;;;;17.61;83.55;99737.16;5031679;28;20056;-44
2023/08/12 07:13:36;;;;;;;3.97;1.17;;;;;;;17.55;83.62;99738.81;5031059;28;20041;-45
2023/08/12 07:16:03;;;;;;;5.55;1.40;;;;;;;17.46;83.63;99744.13;5031304;28;20045;-44
2023/08/12 07:18:31;;;;;;;2.30;0.70;;;;;;;17.38;83.84;99742.59;5031449;28;20083;-43
2023/08/12 07:20:59;;;;;;;3.05;0.80;;;;;;;17.37;84.08;99726.19;5031179;28;20053;-45
2023/08/12 07:23:27;;;;;;;3.25;0.98;;;;;;;17.41;84.01;99736.16;5031162;28;20056;-44
2023/08/12 07:25:53;;;;;;;3.17;1.15;;;;;;;17.48;83.92;99746.47;5026757;28;20148;-47
2023/08/12 07:28:20;;;;;;;4.93;0.93;;;;;;;17.59;83.99;99736.81;5031136;28;20052;-44
2023/08/12 07:30:49;;;;;;;6.22;0.85;;;;;;;17.81;83.99;99736.56;5031071;28;20049;-47
2023/08/12 07:33:16;;;;;;;4.18;0.93;;;;;;;18.04;83.56;99733.84;5031050;28;20060;-43
2023/08/12 07:35:43;;;;;;;2.13;0.68;;;;;;;18.21;82.98;99742.00;5031005;28;20041;-43
2023/08/12 07:38:09;;;;;;;4.22;0.60;;;;;;;18.37;82.59;99744.22;5031207;28;20447;-44
2023/08/12 07:40:36;;;;;;;0.70;0.32;;;;;;;18.50;82.19;99736.84;5029751;28;20096;-43
2023/08/12 07:43:07;;;;;;;3.85;0.70;;;;;;;18.60;81.73;99749.91;5031633;28;20041;-44
2023/08/12 07:45:34;;;;;;;4.35;0.85;;;;;;;18.69;81.74;99752.19;5029921;28;20095;-44
2023/08/12 07:48:01;;;;;;;1.90;0.65;;;;;;;18.85;81.82;99746.69;5031015;28;20045;-44
2023/08/12 07:50:28;;;;;;;3.78;0.88;;;;;;;18.99;81.48;99746.47;5029274;28;20094;-44
2023/08/12 07:52:55;;;;;;;2.95;0.28;;;;;;;18.98;80.91;99755.34;5031425;28;20053;-44
2023/08/12 07:55:22;;;;;;;2.40;0.70;;;;;;;18.90;80.40;99763.06;5027793;28;20076;-44
2023/08/12 07:57:52;;;;;;;5.38;0.52;;;;;;;18.83;80.16;99763.97;5031182;28;20247;-44
2023/08/12 08:00:19;;;;;;;2.47;0.60;;;;;;;18.78;80.15;99758.84;5030757;28;20049;-45
2023/08/12 08:02:46;;;;;;;2.58;0.68;;;;;;;18.79;80.54;99759.63;5030937;28;20048;-43
2023/08/12 08:05:13;;;;;;;1.38;0.40;;;;;;;18.96;81.76;99763.34;5030743;28;20128;-44
2023/08/12 08:07:40;;;;;;;2.40;0.50;;;;;;;19.21;81.63;99761.75;5030495;28;20049;-41
2023/08/12 08:10:07;;;;;;;0.65;0.40;;;;;;;19.43;81.14;99759.38;5030711;28;20132;-47
2023/08/12 08:12:34;;;;;;;1.38;0.25;;;;;;;19.50;80.10;99762.06;5031070;28;20038;-44
2023/08/12 08:15:01;;;;;;;1.35;0.43;;;;;;;19.60;80.28;99769.47;5030859;28;20037;-44
2023/08/12 08:17:29;;;;;;;1.63;0.47;;;;;;;19.70;79.63;99765.66;5030987;28;20577;-44
2023/08/12 08:19:59;;;;;;;2.35;0.30;;;;;;;19.72;79.67;99782.91;5028484;28;20566;-44
2023/08/12 08:22:27;;;;;;;5.88;0.55;;;;;;;19.66;79.20;99789.44;5030873;28;20076;-44
2023/08/12 08:24:57;;;;;;;3.08;0.80;;;;;;;19.40;79.57;99808.75;5030726;28;20092;-43
2023/08/12 08:27:24;;;;;;;5.20;1.77;;;;;;;19.01;79.87;99796.56;5029664;28;20404;-43
2023/08/12 08:29:50;;;;;;;1.90;0.30;;;;;;;18.67;80.94;99788.25;5030694;28;20038;-43
2023/08/12 08:32:17;;;;;;;1.25;0.35;;;;;;;18.42;81.23;99793.41;5030859;28;20049;-43
2023/08/12 08:34:45;;;;;;;2.58;0.30;;;;;;;18.39;81.70;99789.44;5016062;28;20816;-43
2023/08/12 08:37:12;;;;;;;2.10;0.77;;;;;;;18.75;82.18;99782.13;5027779;28;20053;-44
2023/08/12 08:39:39;;;;;;;1.95;0.43;;;;;;;19.55;80.68;99786.03;5030613;28;20052;-44
2023/08/12 08:42:06;;;;;;;2.40;0.50;;;;;;;19.85;79.44;99781.03;5027509;28;20087;-43
2023/08/12 08:44:35;;;;;;;2.13;0.50;;;;;;;19.72;79.53;99782.91;5029860;28;20500;-44
2023/08/12 08:47:03;;;;;;;1.98;0.50;;;;;;;19.55;79.57;99783.22;5030594;28;20447;-44
2023/08/12 08:49:31;;;;;;;2.58;0.60;;;;;;;19.81;80.29;99776.69;5023300;28;20042;-42
2023/08/12 08:52:00;;;;;;;2.15;1.50;;;;;;;20.88;79.07;99788.06;5025249;28;20045;-43
2023/08/12 08:54:27;;;;;;;0.85;0.60;;;;;;;22.04;76.44;99801.19;5030632;28;20045;-41
2023/08/12 08:56:54;;;;;;;1.38;0.35;;;;;;;22.97;73.78;99802.81;5032241;28;20498;-42
2023/08/12 08:59:34;;;;;;;2.78;0.70;;;;;;;23.76;71.70;99790.47;5033669;28;20052;-42
2023/08/12 09:02:01;;;;;;;0.40;0.30;;;;;;;24.55;69.96;99799.25;5033882;28;20053;-41
2023/08/12 09:04:29;;;;;;;1.85;0.35;;;;;;;25.14;67.82;99797.34;5033813;28;20049;-45
2023/08/12 09:06:56;;;;;;;2.22;0.47;;;;;;;25.66;65.04;99808.50;5031544;28;20041;-42
2023/08/12 09:09:23;;;;;;;2.58;0.40;;;;;;;25.98;63.76;99807.09;5034157;28;20056;-43
2023/08/12 09:11:52;;;;;;;1.42;0.35;;;;;;;26.36;61.90;99813.09;5029468;28;20431;-43
2023/08/12 09:14:19;;;;;;;1.95;0.50;;;;;;;26.60;59.76;99808.31;5013943;28;20058;-42
2023/08/12 09:16:47;;;;;;;0.98;0.55;;;;;;;26.69;58.46;99810.34;5033716;28;20131;-44
2023/08/12 09:19:14;;;;;;;0.98;0.28;;;;;;;26.70;57.86;99797.72;5033539;28;20053;-43
2023/08/12 09:21:42;;;;;;;1.13;0.30;;;;;;;26.22;56.37;99804.44;5033477;28;20088;-42
2023/08/12 09:24:09;;;;;;;1.85;0.50;;;;;;;25.16;57.34;99798.44;5033305;28;20530;-42
2023/08/12 09:26:36;;;;;;;1.58;0.20;;;;;;;23.89;58.51;99797.66;5033060;28;20500;-43
2023/08/12 09:29:03;;;;;;;0.82;0.20;;;;;;;22.94;60.64;99809.38;5033698;28;20045;-43
2023/08/12 09:31:32;;;;;;;2.05;0.38;;;;;;;22.14;61.90;99805.72;5033028;28;20052;-41
2023/08/12 09:34:06;;;;;;;1.05;0.40;;;;;;;21.49;62.97;99798.63;5030856;28;20041;-42
2023/08/12 09:36:34;;;;;;;2.00;0.52;;;;;;;21.08;64.08;99808.50;5021312;28;20056;-42
2023/08/12 09:39:08;;;;;;;1.17;0.30;;;;;;;21.09;64.89;99803.66;5030071;28;20707;-42
2023/08/12 09:41:38;;;;;;;2.13;0.70;;;;;;;21.75;63.67;99817.25;5033513;28;20450;-43
2023/08/12 09:44:05;;;;;;;1.35;0.30;;;;;;;22.34;62.19;99814.81;5033007;28;20411;-42
2023/08/12 09:46:34;;;;;;;1.48;0.22;;;;;;;22.95;61.45;99813.78;5032579;28;20099;-41
2023/08/12 09:49:04;;;;;;;2.67;0.35;;;;;;;23.25;60.24;99812.38;5029808;28;20056;-43
2023/08/12 09:51:36;;;;;;;0.47;0.30;;;;;;;23.09;60.15;99802.00;5033096;28;20053;-42
2023/08/12 09:54:04;;;;;;;1.50;0.20;;;;;;;22.75;60.71;99810.38;5033441;28;20180;-44
2023/08/12 09:56:36;;;;;;;3.20;0.45;;;;;;;22.33;60.80;99807.59;5031057;28;20053;-49
2023/08/12 09:59:07;;;;;;;2.13;0.40;;;;;;;21.86;61.31;99814.97;5032265;28;20048;-43
2023/08/12 10:01:35;;;;;;;1.38;0.60;;;;;;;21.52;62.02;99818.28;5031942;28;20126;-42
2023/08/12 10:04:05;;;;;;;2.08;0.22;;;;;;;22.24;61.83;99820.75;5031479;28;20064;-42
2023/08/12 10:06:33;;;;;;;0.82;0.32;;;;;;;23.34;59.53;99818.94;5032414;28;20503;-42
2023/08/12 10:09:00;;;;;;;1.20;0.40;;;;;;;23.87;58.04;99830.47;5032099;28;20073;-43
2023/08/12 10:11:28;;;;;;;0.63;0.20;;;;;;;24.26;57.23;99824.22;5032635;28;20038;-43
2023/08/12 10:13:56;;;;;;;2.35;0.55;;;;;;;24.45;56.90;99823.09;5032665;28;20049;-42
2023/08/12 10:16:23;;;;;;;1.95;0.40;;;;;;;24.81;55.85;99826.16;5032441;28;20053;-43
2023/08/12 10:18:52;;;;;;;1.88;0.60;;;;;;;24.83;55.52;99822.09;5032514;28;20064;-42
2023/08/12 10:21:20;;;;;;;1.85;0.55;;;;;;;24.52;55.48;99836.97;5032619;28;20049;-44
2023/08/12 10:23:49;;;;;;;2.33;0.43;;;;;;;24.01;56.39;99827.16;5032129;28;20045;-43
2023/08/12 10:26:17;;;;;;;1.77;0.32;;;;;;;23.44;57.52;99826.28;5031910;28;20060;-42
2023/08/12 10:28:44;;;;;;;3.10;0.47;;;;;;;22.87;58.32;99835.00;5032331;28;20045;-43
2023/08/12 10:31:11;;;;;;;1.48;0.40;;;;;;;22.67;59.22;99826.72;5032031;28;20413;-43
2023/08/12 10:33:39;;;;;;;2.78;0.47;;;;;;;22.64;58.54;99826.84;5029559;28;20041;-43
2023/08/12 10:36:07;;;;;;;2.33;0.45;;;;;;;22.24;58.73;99821.53;5030883;28;20037;-42
2023/08/12 10:38:34;;;;;;;1.90;0.57;;;;;;;21.84;59.26;99831.50;5032130;28;20140;-43
2023/08/12 10:41:18;;;;;;;1.55;0.40;;;;;;;21.47;60.03;99832.84;5031849;28;20060;-43
2023/08/12 10:43:52;;;;;;;1.27;0.63;;;;;;;21.20;60.89;99833.16;5031842;28;20492;-44
2023/08/12 10:46:30;;;;;;;1.38;0.57;;;;;;;20.92;61.85;99836.59;5027619;28;20103;-43
2023/08/12 10:49:08;;;;;;;2.45;0.47;;;;;;;20.68;62.21;99840.75;5029668;28;20077;-46
2023/08/12 10:51:52;;;;;;;3.70;0.57;;;;;;;20.56;62.41;99833.00;5031795;28;20065;-46
2023/08/12 10:54:31;;;;;;;1.67;0.50;;;;;;;20.51;63.07;99833.50;5031549;28;20535;-45
2023/08/12 10:57:08;;;;;;;1.45;0.60;;;;;;;20.55;63.16;99845.47;5031241;28;20125;-45
2023/08/12 10:59:45;;;;;;;2.95;0.60;;;;;;;20.46;63.72;99848.09;5029046;28;20041;-44
2023/08/12 11:02:25;;;;;;;2.38;0.70;;;;;;;20.35;63.78;99853.13;5027446;28;20053;-46
2023/08/12 11:05:00;;;;;;;2.10;0.45;;;;;;;20.15;63.56;99852.31;5025341;28;20038;-44
2023/08/12 11:07:29;;;;;;;0.95;0.28;;;;;;;19.92;63.96;99845.50;5018241;28;20041;-45
2023/08/12 11:10:00;;;;;;;3.03;0.60;;;;;;;19.82;64.15;99851.31;5031251;28;20068;-46
2023/08/12 11:12:39;;;;;;;2.95;0.60;;;;;;;19.84;64.56;99849.69;5031610;28;20052;-49
2023/08/12 11:15:06;;;;;;;3.67;0.85;;;;;;;19.97;64.85;99847.81;5031293;28;20038;-46
2023/08/12 11:17:36;;;;;;;3.75;0.52;;;;;;;20.12;64.85;99855.97;5031571;28;20045;-45
2023/08/12 11:20:06;;;;;;;3.03;0.75;;;;;;;20.14;64.40;99850.72;5031382;28;20091;-45
2023/08/12 11:22:37;;;;;;;1.55;0.57;;;;;;;19.99;64.16;99850.19;5031084;28;20080;-46
2023/08/12 11:25:08;;;;;;;2.95;0.70;;;;;;;19.81;65.40;99855.34;5030940;28;20053;-46
2023/08/12 11:27:46;;;;;;;1.80;0.68;;;;;;;19.72;65.69;99860.75;5031138;28;20047;-44
2023/08/12 11:30:15;;;;;;;1.70;0.82;;;;;;;19.75;66.33;99857.84;5030102;28;20053;-43
2023/08/12 11:32:45;;;;;;;1.90;0.60;;;;;;;19.87;66.64;99854.44;5023794;28;20045;-43
2023/08/12 11:35:14;;;;;;;0.40;0.25;;;;;;;19.99;66.18;99856.59;5030977;28;20068;-43